createdAt,value
2018-04-27T00:02:11.748Z,3.20
2018-04-27T00:04:39.649Z,3.22
2018-04-27T00:07:07.164Z,3.00
2018-04-27T00:09:34.657Z,3.10
2018-04-27T00:12:02.173Z,3.10
2018-04-27T00:14:29.764Z,2.75
2018-04-27T00:16:57.277Z,3.08
2018-04-27T00:19:24.822Z,3.00
2018-04-27T00:21:52.332Z,3.35
2018-04-27T00:24:20.206Z,3.30
2018-04-27T00:26:47.898Z,3.50
2018-04-27T00:29:15.784Z,3.42
2018-04-27T00:31:43.368Z,3.72
2018-04-27T00:34:10.867Z,3.50
2018-04-27T00:36:38.764Z,2.50
2018-04-27T00:39:06.653Z,3.65
2018-04-27T00:41:34.623Z,3.28
2018-04-27T00:44:02.214Z,3.55
2018-04-27T00:46:29.708Z,3.45
2018-04-27T00:48:57.583Z,3.72
2018-04-27T00:51:25.198Z,2.62
2018-04-27T00:53:53.075Z,3.17
2018-04-27T00:56:20.575Z,2.62
2018-04-27T00:58:48.452Z,2.95
2018-04-27T01:01:16.427Z,3.47
2018-04-27T01:03:43.907Z,3.15
2018-04-27T01:06:11.396Z,3.15
2018-04-27T01:08:38.904Z,3.15
2018-04-27T01:11:06.793Z,3.12
2018-04-27T01:13:34.767Z,3.35
2018-04-27T01:16:02.247Z,2.53
2018-04-27T01:18:29.747Z,2.60
2018-04-27T01:20:57.325Z,3.08
2018-04-27T01:23:24.823Z,3.42
2018-04-27T01:25:52.316Z,2.72
2018-04-27T01:28:20.214Z,2.83
2018-04-27T01:30:47.703Z,2.97
2018-04-27T01:33:15.216Z,3.15
2018-04-27T01:35:42.731Z,3.25
2018-04-27T01:38:10.237Z,3.30
2018-04-27T01:40:38.206Z,3.60
2018-04-27T01:43:05.710Z,2.65
2018-04-27T01:45:33.601Z,3.62
2018-04-27T01:48:01.499Z,3.25
2018-04-27T01:50:29.386Z,2.40
2018-04-27T01:52:57.301Z,2.78
2018-04-27T01:55:24.797Z,3.10
2018-04-27T01:57:52.340Z,3.20
2018-04-27T02:00:19.832Z,2.95
2018-04-27T02:02:47.732Z,2.75
2018-04-27T02:05:15.705Z,2.70
2018-04-27T02:07:43.199Z,2.80
2018-04-27T02:10:11.080Z,3.40
2018-04-27T02:12:38.579Z,3.37
2018-04-27T02:15:06.466Z,2.72
2018-04-27T02:17:34.548Z,3.60
2018-04-27T02:20:02.037Z,3.87
2018-04-27T02:22:29.544Z,2.80
2018-04-27T02:24:57.523Z,3.00
2018-04-27T02:27:25.423Z,3.35
2018-04-27T02:29:53.294Z,3.58
2018-04-27T02:32:20.774Z,4.03
2018-04-27T02:34:48.277Z,3.47
2018-04-27T02:37:16.150Z,3.72
2018-04-27T02:39:43.739Z,3.05
2018-04-27T02:42:11.219Z,3.30
2018-04-27T02:44:38.711Z,3.20
2018-04-27T02:47:06.186Z,2.62
2018-04-27T02:49:33.692Z,2.70
2018-04-27T02:52:01.575Z,3.70
2018-04-27T02:54:29.077Z,2.45
2018-04-27T02:56:56.969Z,3.62
2018-04-27T02:59:24.884Z,2.80
2018-04-27T03:01:52.381Z,3.22
2018-04-27T03:04:19.938Z,3.40
2018-04-27T03:06:47.423Z,2.97
2018-04-27T03:09:14.978Z,3.25
2018-04-27T03:11:42.554Z,3.25
2018-04-27T03:14:10.047Z,3.47
2018-04-27T03:16:37.533Z,3.90
2018-04-27T03:19:05.115Z,2.70
2018-04-27T03:21:32.635Z,3.30
2018-04-27T03:24:00.226Z,3.03
2018-04-27T03:26:27.663Z,3.53
2018-04-27T03:28:55.259Z,3.67
2018-04-27T03:31:23.144Z,3.40
2018-04-27T03:33:50.643Z,4.47
2018-04-27T03:36:18.614Z,3.08
2018-04-27T03:38:46.107Z,3.45
2018-04-27T03:41:13.684Z,3.35
2018-04-27T03:43:41.182Z,3.60
2018-04-27T03:46:09.062Z,3.35
2018-04-27T03:48:36.619Z,3.60
2018-04-27T03:51:04.096Z,4.05
2018-04-27T03:53:31.594Z,3.67
2018-04-27T03:55:59.096Z,3.20
2018-04-27T03:58:26.580Z,3.85
2018-04-27T04:01:06.136Z,3.17
2018-04-27T04:03:45.902Z,3.67
2018-04-27T04:06:13.730Z,3.12
2018-04-27T04:08:41.216Z,3.42
2018-04-27T04:11:09.193Z,2.90
2018-04-27T04:13:36.756Z,3.25
2018-04-27T04:16:04.676Z,4.30
2018-04-27T04:18:32.560Z,4.62
2018-04-27T04:21:00.068Z,4.18
2018-04-27T04:23:27.945Z,3.17
2018-04-27T04:25:55.853Z,4.00
2018-04-27T04:28:23.849Z,3.50
2018-04-27T04:30:51.414Z,3.92
2018-04-27T04:33:19.305Z,3.70
2018-04-27T04:35:47.265Z,3.45
2018-04-27T04:38:14.746Z,2.80
2018-04-27T04:40:42.356Z,3.67
2018-04-27T04:43:09.943Z,3.30
2018-04-27T04:45:37.448Z,4.32
2018-04-27T04:48:05.424Z,3.35
2018-04-27T04:50:32.916Z,3.20
2018-04-27T04:53:00.904Z,3.12
2018-04-27T04:55:28.403Z,3.42
2018-04-27T04:57:56.292Z,4.18
2018-04-27T05:00:24.268Z,3.85
2018-04-27T05:02:51.799Z,3.67
2018-04-27T05:05:19.667Z,3.80
2018-04-27T05:07:47.553Z,3.72
2018-04-27T05:10:15.469Z,3.37
2018-04-27T05:12:43.020Z,3.40
2018-04-27T05:15:10.599Z,3.20
2018-04-27T05:17:38.084Z,2.85
2018-04-27T05:20:05.098Z,3.70
2018-04-27T05:22:33.388Z,2.90
2018-04-27T05:25:00.939Z,3.35
2018-04-27T05:27:28.423Z,3.10
2018-04-27T05:29:56.012Z,3.28
2018-04-27T05:32:23.597Z,3.55
2018-04-27T05:34:51.092Z,3.35
2018-04-27T05:37:19.073Z,3.25
2018-04-27T05:39:46.565Z,2.60
2018-04-27T05:42:14.474Z,3.60
2018-04-27T05:44:42.374Z,3.08
2018-04-27T05:47:09.889Z,2.80
2018-04-27T05:49:37.402Z,2.83
2018-04-27T05:52:04.917Z,3.28
2018-04-27T05:54:32.475Z,2.80
2018-04-27T05:56:59.980Z,2.65
2018-04-27T05:59:27.869Z,2.97
2018-04-27T06:01:55.781Z,2.60
2018-04-27T06:04:23.331Z,2.83
2018-04-27T06:06:50.844Z,3.05
2018-04-27T06:09:18.391Z,2.47
2018-04-27T06:11:45.994Z,2.75
2018-04-27T06:14:13.880Z,2.25
2018-04-27T06:16:41.466Z,2.47
2018-04-27T06:19:08.961Z,2.70
2018-04-27T06:21:36.903Z,2.10
2018-04-27T06:24:04.404Z,2.60
2018-04-27T06:26:31.912Z,1.73
2018-04-27T06:28:59.794Z,2.25
2018-04-27T06:31:27.303Z,2.30
2018-04-27T06:33:55.203Z,2.25
2018-04-27T06:36:22.721Z,2.05
2018-04-27T06:38:50.224Z,2.15
2018-04-27T06:41:17.734Z,2.15
2018-04-27T06:43:45.634Z,1.95
2018-04-27T06:46:13.195Z,2.28
2018-04-27T06:48:40.792Z,2.25
2018-04-27T06:51:08.311Z,2.50
2018-04-27T06:53:35.858Z,2.25
2018-04-27T06:56:03.841Z,2.67
2018-04-27T06:58:31.746Z,1.42
2018-04-27T07:00:59.733Z,2.60
2018-04-27T07:03:27.714Z,1.85
2018-04-27T07:05:55.432Z,1.92
2018-04-27T07:08:22.958Z,2.47
2018-04-27T07:10:50.465Z,1.87
2018-04-27T07:13:17.977Z,2.47
2018-04-27T07:15:45.470Z,2.10
2018-04-27T07:18:12.997Z,3.10
2018-04-27T07:20:40.491Z,2.35
2018-04-27T07:23:08.103Z,2.03
2018-04-27T07:25:36.006Z,2.62
2018-04-27T07:28:03.519Z,2.17
2018-04-27T07:30:31.016Z,1.50
2018-04-27T07:32:58.541Z,2.17
2018-04-27T07:35:26.428Z,2.33
2018-04-27T07:37:54.028Z,1.70
2018-04-27T07:40:21.592Z,1.62
2018-04-27T07:42:49.586Z,2.65
2018-04-27T07:45:17.096Z,2.50
2018-04-27T07:47:44.615Z,1.80
2018-04-27T07:50:12.109Z,2.87
2018-04-27T07:52:39.635Z,2.00
2018-04-27T07:55:07.527Z,1.87
2018-04-27T07:57:35.034Z,2.10
2018-04-27T08:00:02.529Z,2.10
2018-04-27T08:02:30.033Z,1.83
2018-04-27T08:04:57.533Z,1.63
2018-04-27T08:07:25.052Z,1.37
2018-04-27T08:09:52.543Z,1.77
2018-04-27T08:12:20.070Z,2.00
2018-04-27T08:14:47.560Z,1.70
2018-04-27T08:17:15.084Z,1.57
2018-04-27T08:19:43.016Z,1.20
2018-04-27T08:22:10.548Z,1.67
2018-04-27T08:24:38.618Z,1.20
2018-04-27T08:27:06.456Z,1.43
2018-04-27T08:29:33.961Z,1.50
2018-04-27T08:32:01.457Z,1.37
2018-04-27T08:34:28.968Z,1.40
2018-04-27T08:36:56.562Z,1.20
2018-04-27T08:39:24.076Z,1.40
2018-04-27T08:41:51.635Z,1.50
2018-04-27T08:44:19.622Z,1.03
2018-04-27T08:46:47.126Z,1.80
2018-04-27T08:49:15.037Z,1.20
2018-04-27T08:51:42.532Z,1.60
2018-04-27T08:54:10.163Z,1.50
2018-04-27T08:56:37.672Z,1.57
2018-04-27T08:59:05.660Z,1.60
2018-04-27T09:01:33.556Z,1.87
2018-04-27T09:04:01.498Z,1.40
2018-04-27T09:06:29.094Z,1.70
2018-04-27T09:08:56.614Z,1.37
2018-04-27T09:11:24.508Z,1.60
2018-04-27T09:13:52.496Z,1.60
2018-04-27T09:16:20.138Z,1.60
2018-04-27T09:18:47.589Z,1.50
2018-04-27T09:21:15.488Z,1.60
2018-04-27T09:23:43.104Z,1.73
2018-04-27T09:26:10.610Z,1.27
2018-04-27T09:28:38.127Z,2.20
2018-04-27T09:31:06.016Z,1.80
2018-04-27T09:33:33.923Z,1.47
2018-04-27T09:36:01.438Z,2.00
2018-04-27T09:38:28.955Z,1.80
2018-04-27T09:40:56.915Z,1.80
2018-04-27T09:43:24.389Z,1.60
2018-04-27T09:45:51.883Z,1.63
2018-04-27T09:48:19.409Z,1.80
2018-04-27T09:50:47.475Z,1.40
2018-04-27T09:53:15.317Z,1.20
2018-04-27T09:55:42.840Z,1.50
2018-04-27T09:58:10.336Z,1.70
2018-04-27T12:46:48.121Z,2.50
2018-04-27T12:49:15.612Z,1.80
2018-04-27T12:51:43.725Z,1.97
2018-04-27T12:54:11.640Z,1.60
2018-04-27T13:01:23.633Z,2.07
2018-04-27T13:03:51.111Z,1.90
2018-04-27T13:06:18.617Z,1.60
2018-04-27T13:08:46.593Z,1.73
2018-04-27T13:11:14.181Z,1.90
2018-04-27T13:13:41.663Z,2.23
2018-04-27T13:16:09.253Z,2.27
2018-04-27T13:18:36.725Z,1.70
2018-04-27T13:21:04.218Z,2.20
2018-04-27T13:23:31.692Z,1.80
2018-04-27T13:25:59.166Z,2.80
2018-04-27T13:28:26.662Z,2.13
2018-04-27T13:30:54.140Z,1.47
2018-04-27T13:33:21.638Z,2.20
2018-04-27T13:35:49.114Z,1.77
2018-04-27T13:38:16.610Z,1.87
2018-04-27T13:40:44.486Z,1.90
2018-04-27T13:43:11.973Z,2.10
2018-04-27T13:45:39.462Z,2.30
2018-04-27T13:48:06.960Z,2.00
2018-04-27T13:50:34.440Z,2.00
2018-04-27T13:53:02.331Z,2.30
2018-04-27T13:55:30.205Z,2.57
2018-04-27T13:57:57.701Z,1.73
2018-04-27T14:00:25.577Z,2.50
2018-04-27T14:02:53.117Z,2.40
2018-04-27T14:05:20.962Z,2.80
2018-04-27T14:07:48.458Z,2.30
2018-04-27T14:10:15.934Z,2.80
2018-04-27T14:12:43.426Z,2.00
2018-04-27T14:15:11.294Z,2.10
2018-04-27T14:17:38.797Z,2.00
2018-04-27T14:20:06.374Z,2.33
2018-04-27T14:22:33.835Z,2.40
2018-04-27T14:25:01.285Z,2.30
2018-04-27T14:27:28.777Z,1.60
2018-04-27T14:29:56.253Z,2.00
2018-04-27T14:32:23.745Z,1.53
2018-04-27T14:34:51.232Z,1.77
2018-04-27T14:37:18.723Z,2.13
2018-04-27T14:39:46.202Z,2.17
2018-04-27T14:42:13.689Z,1.90
2018-04-27T14:44:41.186Z,2.10
2018-04-27T14:47:08.661Z,1.33
2018-04-27T14:49:36.157Z,2.03
2018-04-27T14:52:04.034Z,2.33
2018-04-27T14:54:31.538Z,2.40
2018-04-27T14:56:59.410Z,1.90
2018-04-27T14:59:26.906Z,2.10
2018-04-27T15:01:54.418Z,2.13
2018-04-27T15:04:21.913Z,2.63
2018-04-27T15:06:49.403Z,2.47
2018-04-27T15:09:16.907Z,2.13
2018-04-27T15:11:44.393Z,2.50
2018-04-27T15:14:11.906Z,2.30
2018-04-27T15:16:39.781Z,2.30
2018-04-27T15:19:07.674Z,2.40
2018-04-27T15:21:35.546Z,2.97
2018-04-27T15:24:03.119Z,2.00
2018-04-27T15:26:30.946Z,2.40
2018-04-27T15:28:58.833Z,2.20
2018-04-27T15:31:26.702Z,2.43
2018-04-27T15:33:54.239Z,2.30
2018-04-27T15:36:21.722Z,2.10
2018-04-27T15:38:49.222Z,2.20
2018-04-27T15:41:16.706Z,1.73
2018-04-27T15:43:44.210Z,2.03
2018-04-27T15:46:11.694Z,2.00
2018-04-27T15:48:39.193Z,2.23
2018-04-27T15:51:06.678Z,2.33
2018-04-27T15:53:34.186Z,1.90
2018-04-27T15:56:01.661Z,1.67
2018-04-27T15:58:29.551Z,1.30
2018-04-27T16:00:57.422Z,2.00
2018-04-27T16:03:24.913Z,2.37
2018-04-27T16:05:52.790Z,2.17
2018-04-27T16:29:42.801Z,2.47
2018-04-27T16:32:10.669Z,2.77
2018-04-27T16:34:38.238Z,2.70
2018-04-27T16:37:05.718Z,2.93
2018-04-27T16:39:33.218Z,3.07
2018-04-27T16:42:00.759Z,3.67
2018-04-27T16:44:28.597Z,3.30
2018-04-27T16:46:56.115Z,2.77
2018-04-27T16:49:23.629Z,2.90
2018-04-27T16:51:51.105Z,2.20
2018-04-27T16:54:18.594Z,2.50
2018-04-27T16:56:46.090Z,3.17
2018-04-27T16:59:13.582Z,2.17
2018-04-27T17:01:41.092Z,2.63
2018-04-27T17:04:08.969Z,2.20
2018-04-27T17:06:36.464Z,2.60
2018-04-27T17:09:04.356Z,2.53
2018-04-27T17:11:31.857Z,2.23
2018-04-27T17:13:59.339Z,2.17
2018-04-27T17:16:26.838Z,3.40
2018-04-27T17:18:54.326Z,2.40
2018-04-27T17:21:21.824Z,2.97
2018-04-27T17:23:49.299Z,2.80
2018-04-27T17:26:16.803Z,2.60
2018-04-27T17:28:44.289Z,2.40
2018-04-27T17:31:11.796Z,2.27
2018-04-27T17:33:39.670Z,2.00
2018-04-27T17:36:07.171Z,2.77
2018-04-27T17:38:34.654Z,2.10
2018-04-27T17:41:02.154Z,2.33
2018-04-27T17:43:29.642Z,1.47
2018-04-27T17:45:57.151Z,1.77
2018-04-27T17:48:24.643Z,2.30
2018-04-27T17:50:52.146Z,2.20
2018-04-27T17:53:20.031Z,1.90
2018-04-27T17:55:47.995Z,2.20
2018-04-27T17:58:15.818Z,1.80
2018-04-27T18:00:43.714Z,2.23
2018-04-27T18:03:11.593Z,2.33
2018-04-27T18:05:39.096Z,2.10
2018-04-27T18:08:06.967Z,2.10
2018-04-27T18:10:34.458Z,2.20
2018-04-27T18:13:02.329Z,2.60
2018-04-27T18:15:29.858Z,2.40
2018-04-27T18:17:57.333Z,2.13
2018-04-27T18:20:25.212Z,2.17
2018-04-27T18:22:53.164Z,2.20
2018-04-27T18:25:20.606Z,2.13
2018-04-27T18:27:48.211Z,2.33
2018-04-27T18:30:15.614Z,2.00
2018-04-27T18:32:43.230Z,1.83
2018-04-27T18:35:10.610Z,2.00
2018-04-27T18:37:38.112Z,2.17
2018-04-27T18:40:05.994Z,2.60
2018-04-27T18:42:33.891Z,1.80
2018-04-27T18:45:01.791Z,2.13
2018-04-27T18:47:29.310Z,2.17
2018-04-27T18:49:56.795Z,2.00
2018-04-27T18:52:24.304Z,2.00
2018-04-27T18:54:51.870Z,1.97
2018-04-27T18:57:23.982Z,1.90
2018-04-27T18:59:51.476Z,2.30
2018-04-27T19:02:18.973Z,2.40
2018-04-27T19:04:46.844Z,2.30
2018-04-27T19:07:14.337Z,2.00
2018-04-27T19:09:42.733Z,2.03
2018-04-27T19:12:10.228Z,2.50
2018-04-27T19:14:37.706Z,2.60
2018-04-27T19:17:05.205Z,2.17
2018-04-27T19:19:32.677Z,3.80
2018-04-27T19:22:00.174Z,2.70
2018-04-27T19:24:28.091Z,3.20
2018-04-27T19:26:55.599Z,3.30
2018-04-27T19:29:23.146Z,3.53
2018-04-27T19:31:50.585Z,3.03
2018-04-27T19:34:18.070Z,2.87
2018-04-27T19:36:45.563Z,2.13
2018-04-27T19:39:13.049Z,2.00
2018-04-27T19:41:40.546Z,2.10
2018-04-27T19:44:08.429Z,2.37
2018-04-27T19:46:35.936Z,2.60
2018-04-27T19:49:03.834Z,1.77
2018-04-27T19:51:31.313Z,2.00
2018-04-27T19:53:59.206Z,1.60
2018-04-27T19:56:27.087Z,2.07
2018-04-27T19:58:55.060Z,2.00
2018-04-27T20:01:22.482Z,1.70
2018-04-27T20:03:49.983Z,1.27
2018-04-27T20:06:17.471Z,1.97
2018-04-27T20:08:44.970Z,1.97
2018-04-27T20:11:12.500Z,2.27
2018-04-27T20:13:39.985Z,2.17
2018-04-27T20:16:07.906Z,2.03
2018-04-27T20:18:35.442Z,2.20
2018-04-27T20:21:02.882Z,2.03
2018-04-27T20:23:30.377Z,1.93
2018-04-27T20:26:00.339Z,1.90
2018-04-27T20:28:30.325Z,2.20
2018-04-27T20:30:57.812Z,3.13
2018-04-27T20:33:25.319Z,2.20
2018-04-27T20:35:53.595Z,2.40
2018-04-27T20:38:21.106Z,2.03
2018-04-27T20:40:48.591Z,3.30
2018-04-27T20:43:16.102Z,5.73
2018-04-27T20:45:43.583Z,3.97
2018-04-27T20:48:11.870Z,3.20
2018-04-27T20:50:39.437Z,3.20
2018-04-27T20:53:06.914Z,2.40
2018-04-27T20:55:34.410Z,2.47
2018-04-27T20:58:01.908Z,2.53
2018-04-27T21:00:29.409Z,2.57
2018-04-27T21:02:56.885Z,2.17
2018-04-27T21:05:24.382Z,2.37
2018-04-27T21:07:51.862Z,2.10
2018-04-27T21:10:19.349Z,2.07
2018-04-27T21:12:47.757Z,1.97
2018-04-27T21:15:15.259Z,3.70
2018-04-27T21:17:48.625Z,4.47
2018-04-27T21:20:19.759Z,3.90
2018-04-27T21:22:47.636Z,5.20
2018-04-27T21:25:15.129Z,3.67
2018-04-27T21:27:43.003Z,4.93
2018-04-27T21:30:13.259Z,4.97
2018-04-27T21:32:40.733Z,5.20
2018-04-27T21:35:08.230Z,5.20
2018-04-27T21:37:37.013Z,4.73
2018-04-27T21:40:04.513Z,4.63
2018-04-27T21:42:31.989Z,3.70
2018-04-27T21:44:59.489Z,3.60
2018-04-27T21:47:37.275Z,3.90
2018-04-27T21:50:07.569Z,3.70
2018-04-27T21:52:53.182Z,3.63
2018-04-27T21:55:21.077Z,3.40
2018-04-27T21:57:56.722Z,2.83
2018-04-27T22:00:25.133Z,2.30
2018-04-27T22:06:06.178Z,2.70
2018-04-27T22:11:43.854Z,2.63
2018-04-27T22:14:12.053Z,2.80
2018-04-27T22:16:40.397Z,2.77
2018-04-27T22:19:07.886Z,2.23
2018-04-27T22:21:38.185Z,1.90
2018-04-27T22:24:09.061Z,2.97
2018-04-27T22:26:40.285Z,1.93
2018-04-27T22:29:19.441Z,2.20
2018-04-27T22:31:46.942Z,2.33
2018-04-27T22:34:14.424Z,2.43
2018-04-27T22:36:45.502Z,2.33
2018-04-27T22:39:18.609Z,2.13
2018-04-27T22:41:53.945Z,2.00
2018-04-27T22:44:21.429Z,2.57
2018-04-27T22:46:48.929Z,2.23
2018-04-27T22:49:17.365Z,1.70
2018-04-27T22:51:44.863Z,2.03
2018-04-27T22:57:14.546Z,2.20
2018-04-27T22:59:43.171Z,2.20
2018-04-27T23:02:22.176Z,2.70
2018-04-27T23:04:55.449Z,2.70
2018-04-27T23:07:24.077Z,2.03
2018-04-27T23:09:54.481Z,3.00
2018-04-27T23:12:21.985Z,2.47
2018-04-27T23:14:50.365Z,2.20
2018-04-27T23:17:17.866Z,2.17
2018-04-27T23:19:46.202Z,2.17
2018-04-27T23:22:25.505Z,2.97
2018-04-27T23:24:55.478Z,2.50
2018-04-27T23:27:22.978Z,3.00
2018-04-27T23:29:50.464Z,2.40
2018-04-27T23:32:18.361Z,2.50
2018-04-27T23:34:45.904Z,2.70
2018-04-27T23:37:13.377Z,2.10
2018-04-27T23:39:40.878Z,2.60
2018-04-27T23:42:08.357Z,2.57
2018-04-27T23:44:35.858Z,2.77
2018-04-27T23:47:03.729Z,2.60
2018-04-27T23:49:31.225Z,3.00
2018-04-27T23:51:58.709Z,2.60
2018-04-27T23:54:26.208Z,2.27
2018-04-27T23:56:54.797Z,2.43
2018-04-27T23:59:25.917Z,3.17
